createdAt,value
2019-02-25T00:02:00.852Z,101774.23
2019-02-25T00:04:26.867Z,101770.92
2019-02-25T00:06:52.888Z,101769.82
2019-02-25T00:09:18.902Z,101767.05
2019-02-25T00:11:44.846Z,101764.97
2019-02-25T00:14:10.767Z,101764.63
2019-02-25T00:16:36.849Z,101767.92
2019-02-25T00:19:02.908Z,101760.70
2019-02-25T00:21:28.916Z,101760.70
2019-02-25T00:23:54.874Z,101766.96
2019-02-25T00:26:20.703Z,101771.86
2019-02-25T00:28:47.560Z,101766.29
2019-02-25T00:31:13.556Z,101762.80
2019-02-25T00:33:39.495Z,101765.45
2019-02-25T00:36:05.623Z,101765.45
2019-02-25T00:38:31.575Z,101763.70
2019-02-25T00:40:57.504Z,101757.34
2019-02-25T00:43:23.499Z,101758.25
2019-02-25T00:45:49.452Z,101758.34
2019-02-25T00:48:15.391Z,101749.62
2019-02-25T00:50:43.090Z,101752.02
2019-02-25T00:53:09.045Z,101755.96
2019-02-25T00:55:35.125Z,101751.11
2019-02-25T00:58:01.162Z,101744.45
2019-02-25T01:00:27.205Z,101744.49
2019-02-25T01:02:53.312Z,101745.73
2019-02-25T01:05:19.388Z,101733.98
2019-02-25T01:07:45.414Z,101734.28
2019-02-25T01:10:12.527Z,101735.14
2019-02-25T01:12:40.624Z,101735.59
2019-02-25T01:15:07.342Z,101727.63
2019-02-25T01:17:33.502Z,101724.16
2019-02-25T01:19:59.480Z,101717.75
2019-02-25T01:22:25.435Z,101719.44
2019-02-25T01:24:51.945Z,101722.59
2019-02-25T01:27:17.853Z,101720.89
2019-02-25T01:29:43.914Z,101719.97
2019-02-25T01:32:10.094Z,101722.98
2019-02-25T01:34:36.101Z,101716.88
2019-02-25T01:37:02.159Z,101716.25
2019-02-25T01:39:27.995Z,101708.11
2019-02-25T01:41:53.928Z,101709.32
2019-02-25T01:44:19.907Z,101706.03
2019-02-25T01:46:45.868Z,101709.91
2019-02-25T01:49:11.844Z,101714.80
2019-02-25T01:51:37.793Z,101705.63
2019-02-25T01:54:03.742Z,101708.26
2019-02-25T01:56:29.638Z,101709.51
2019-02-25T01:58:55.465Z,101708.89
2019-02-25T02:01:21.440Z,101705.50
2019-02-25T02:03:47.357Z,101703.46
2019-02-25T02:06:13.173Z,101702.58
2019-02-25T02:08:39.017Z,101697.45
2019-02-25T02:11:05.026Z,101701.47
2019-02-25T02:13:30.955Z,101698.37
2019-02-25T02:15:56.911Z,101690.41
2019-02-25T02:18:22.810Z,101685.66
2019-02-25T02:20:48.774Z,101678.16
2019-02-25T02:23:14.585Z,101684.21
2019-02-25T02:25:40.585Z,101679.21
2019-02-25T02:28:06.646Z,101670.39
2019-02-25T02:30:32.898Z,101668.94
2019-02-25T02:32:58.816Z,101672.38
2019-02-25T02:35:24.760Z,101671.59
2019-02-25T02:37:50.729Z,101668.17
2019-02-25T02:40:16.627Z,101669.59
2019-02-25T02:42:52.236Z,101671.92
2019-02-25T02:45:24.662Z,101671.33
2019-02-25T02:48:00.209Z,101670.92
2019-02-25T02:50:26.158Z,101666.56
2019-02-25T02:52:52.212Z,101661.56
2019-02-25T02:55:18.350Z,101657.08
2019-02-25T02:57:44.177Z,101655.38
2019-02-25T03:00:12.989Z,101653.58
2019-02-25T03:02:39.112Z,101651.95
2019-02-25T03:05:08.170Z,101656.69
2019-02-25T03:07:34.024Z,101642.27
2019-02-25T03:09:59.905Z,101652.38
2019-02-25T03:12:25.854Z,101655.02
2019-02-25T03:14:51.823Z,101652.59
2019-02-25T03:17:17.728Z,101658.66
2019-02-25T03:19:43.579Z,101654.88
2019-02-25T03:22:09.425Z,101659.14
2019-02-25T03:24:35.559Z,101662.48
2019-02-25T03:27:01.577Z,101659.73
2019-02-25T03:29:27.548Z,101651.94
2019-02-25T03:31:53.513Z,101653.83
2019-02-25T03:34:19.415Z,101651.16
2019-02-25T03:36:45.430Z,101654.30
2019-02-25T03:39:11.335Z,101653.23
2019-02-25T03:41:37.413Z,101649.78
2019-02-25T03:44:03.387Z,101651.38
2019-02-25T03:46:29.242Z,101655.75
2019-02-25T03:48:55.053Z,101655.94
2019-02-25T03:51:20.958Z,101658.46
2019-02-25T03:53:46.953Z,101656.34
2019-02-25T03:56:12.793Z,101651.09
2019-02-25T03:58:38.853Z,101648.87
2019-02-25T04:01:04.964Z,101646.05
2019-02-25T04:03:30.886Z,101651.62
2019-02-25T04:05:56.815Z,101649.39
2019-02-25T04:08:22.900Z,101642.61
2019-02-25T04:10:48.727Z,101638.89
2019-02-25T04:13:14.583Z,101638.41
2019-02-25T04:15:42.449Z,101642.53
2019-02-25T04:18:08.499Z,101643.98
2019-02-25T04:20:34.462Z,101643.84
2019-02-25T04:23:00.300Z,101643.44
2019-02-25T04:25:26.244Z,101646.93
2019-02-25T04:27:52.304Z,101647.52
2019-02-25T04:30:18.168Z,101646.20
2019-02-25T04:32:44.067Z,101645.84
2019-02-25T04:35:11.519Z,101653.20
2019-02-25T04:37:41.481Z,101647.88
2019-02-25T04:40:12.562Z,101647.39
2019-02-25T04:42:38.405Z,101655.67
2019-02-25T04:45:07.932Z,101657.97
2019-02-25T04:47:33.786Z,101662.86
2019-02-25T04:49:59.610Z,101660.69
2019-02-25T04:52:25.477Z,101661.17
2019-02-25T04:54:51.341Z,101670.39
2019-02-25T04:57:17.192Z,101668.05
2019-02-25T04:59:43.044Z,101669.28
2019-02-25T05:02:08.881Z,101670.27
2019-02-25T05:04:34.749Z,101667.39
2019-02-25T05:07:00.588Z,101666.52
2019-02-25T05:09:26.432Z,101670.53
2019-02-25T05:11:52.295Z,101669.72
2019-02-25T05:14:18.219Z,101664.76
2019-02-25T05:16:44.171Z,101664.82
2019-02-25T05:19:10.032Z,101665.43
2019-02-25T05:21:35.903Z,101664.89
2019-02-25T05:24:01.786Z,101668.63
2019-02-25T05:26:27.714Z,101655.52
2019-02-25T05:28:53.556Z,101661.62
2019-02-25T05:31:19.573Z,101657.41
2019-02-25T05:33:45.406Z,101654.20
2019-02-25T05:36:11.251Z,101647.73
2019-02-25T05:38:37.194Z,101650.34
2019-02-25T05:41:03.226Z,101646.57
2019-02-25T05:43:29.150Z,101644.28
2019-02-25T05:45:55.128Z,101646.31
2019-02-25T05:48:20.962Z,101650.46
2019-02-25T05:50:46.847Z,101649.95
2019-02-25T05:53:12.781Z,101659.03
2019-02-25T05:55:38.628Z,101648.53
2019-02-25T05:58:04.629Z,101657.41
2019-02-25T06:00:32.394Z,101657.17
2019-02-25T06:02:58.408Z,101656.73
2019-02-25T06:05:24.641Z,101657.08
2019-02-25T06:07:50.493Z,101659.05
2019-02-25T06:10:16.498Z,101655.39
2019-02-25T06:12:42.417Z,101652.95
2019-02-25T06:15:15.874Z,101655.29
2019-02-25T06:17:41.857Z,101653.00
2019-02-25T06:20:10.413Z,101657.14
2019-02-25T06:22:36.301Z,101656.45
2019-02-25T06:25:03.561Z,101653.84
2019-02-25T06:27:30.924Z,101660.36
2019-02-25T06:29:57.091Z,101660.75
2019-02-25T06:32:23.033Z,101661.55
2019-02-25T06:34:48.875Z,101664.17
2019-02-25T06:37:14.850Z,101662.05
2019-02-25T06:39:40.722Z,101666.94
2019-02-25T06:42:06.627Z,101670.77
2019-02-25T06:44:32.479Z,101662.69
2019-02-25T06:46:58.439Z,101659.21
2019-02-25T06:49:24.337Z,101667.27
2019-02-25T06:51:50.323Z,101677.89
2019-02-25T06:54:16.174Z,101675.45
2019-02-25T06:56:42.209Z,101675.25
2019-02-25T06:59:08.145Z,101677.01
2019-02-25T07:01:33.967Z,101677.92
2019-02-25T07:04:10.557Z,101683.47
2019-02-25T07:06:41.248Z,101688.86
2019-02-25T07:09:09.194Z,101685.95
2019-02-25T07:11:36.926Z,101689.34
2019-02-25T07:14:04.811Z,101683.42
2019-02-25T07:16:44.427Z,101678.43
2019-02-25T07:19:15.169Z,101680.72
2019-02-25T07:21:49.040Z,101680.72
2019-02-25T07:24:16.789Z,101686.17
2019-02-25T07:26:45.893Z,101688.89
2019-02-25T07:29:25.976Z,101687.41
2019-02-25T07:31:53.739Z,101680.94
2019-02-25T07:34:36.912Z,101682.50
2019-02-25T07:37:04.835Z,101675.48
2019-02-25T07:39:35.570Z,101675.48
2019-02-25T07:42:06.112Z,101666.53
2019-02-25T07:44:40.075Z,101680.15
2019-02-25T07:47:10.871Z,101661.23
2019-02-25T07:49:41.586Z,101677.83
2019-02-25T07:52:24.502Z,101671.04
2019-02-25T07:54:52.375Z,101671.04
2019-02-25T07:57:20.148Z,101674.88
2019-02-25T07:59:47.927Z,101673.40
2019-02-25T08:02:27.692Z,101669.67
2019-02-25T08:04:58.429Z,101662.43
2019-02-25T08:07:26.256Z,101662.43
2019-02-25T08:10:10.633Z,101660.89
2019-02-25T08:12:51.014Z,101658.35
2019-02-25T08:15:21.449Z,101662.44
2019-02-25T08:17:51.769Z,101662.81
2019-02-25T08:20:19.573Z,101663.45
2019-02-25T08:23:03.784Z,101664.05
2019-02-25T08:25:34.325Z,101659.67
2019-02-25T08:28:18.570Z,101669.42
2019-02-25T08:30:52.177Z,101663.99
2019-02-25T08:33:32.617Z,101651.05
2019-02-25T08:36:16.275Z,101650.34
2019-02-25T08:38:59.071Z,101651.21
2019-02-25T08:41:35.897Z,101654.37
2019-02-25T08:44:15.874Z,101658.86
2019-02-25T08:46:52.572Z,101653.06
2019-02-25T08:49:20.360Z,101663.25
2019-02-25T08:51:46.241Z,101654.20
2019-02-25T08:54:12.396Z,101651.22
2019-02-25T08:56:38.462Z,101655.73
2019-02-25T08:59:04.463Z,101643.05
2019-02-25T09:01:30.534Z,101645.74
2019-02-25T09:03:56.461Z,101643.19
2019-02-25T09:06:22.438Z,101643.30
2019-02-25T09:08:48.263Z,101640.31
2019-02-25T09:11:14.577Z,101635.55
2019-02-25T09:13:40.918Z,101634.27
2019-02-25T09:16:06.946Z,101639.20
2019-02-25T09:18:33.034Z,101634.80
2019-02-25T09:20:58.974Z,101637.91
2019-02-25T09:23:24.998Z,101640.14
2019-02-25T09:25:51.053Z,101638.82
2019-02-25T09:28:17.075Z,101633.56
2019-02-25T09:30:43.162Z,101628.72
2019-02-25T09:33:09.087Z,101624.75
2019-02-25T09:35:34.912Z,101610.67
2019-02-25T09:38:00.841Z,101612.02
2019-02-25T09:40:26.793Z,101618.61
2019-02-25T09:42:56.869Z,101614.64
2019-02-25T09:45:22.863Z,101623.91
2019-02-25T09:47:48.692Z,101627.00
2019-02-25T09:50:21.563Z,101622.58
2019-02-25T09:52:47.526Z,101633.16
2019-02-25T09:55:13.579Z,101635.38
2019-02-25T09:57:39.460Z,101632.70
2019-02-25T10:00:11.955Z,101631.81
2019-02-25T10:02:37.802Z,101624.75
2019-02-25T10:05:05.705Z,101630.48
2019-02-25T10:07:31.545Z,101632.66
2019-02-25T10:09:57.472Z,101618.98
2019-02-25T10:12:23.326Z,101623.77
2019-02-25T10:14:49.647Z,101625.12
2019-02-25T10:17:23.512Z,101623.32
2019-02-25T10:19:43.610Z,101612.28
2019-02-25T10:22:09.464Z,101623.22
2019-02-25T10:24:35.436Z,101623.25
2019-02-25T10:27:01.251Z,101624.13
2019-02-25T10:29:27.189Z,101623.25
2019-02-25T10:31:53.161Z,101628.47
2019-02-25T10:34:19.131Z,101626.73
2019-02-25T10:36:46.087Z,101622.72
2019-02-25T10:39:14.924Z,101625.33
2019-02-25T10:41:40.628Z,101631.90
2019-02-25T10:44:08.514Z,101626.95
2019-02-25T10:46:34.299Z,101631.73
2019-02-25T10:49:10.914Z,101625.89
2019-02-25T10:51:28.069Z,101626.37
2019-02-25T10:53:53.921Z,101628.95
2019-02-25T10:56:25.441Z,101623.17
2019-02-25T10:58:51.643Z,101619.73
2019-02-25T11:01:19.895Z,101614.83
2019-02-25T11:03:46.165Z,101602.78
2019-02-25T11:06:13.248Z,101596.59
2019-02-25T11:08:41.549Z,101598.93
2019-02-25T11:11:13.624Z,101597.16
2019-02-25T11:13:39.470Z,101591.69
2019-02-25T11:16:05.792Z,101586.88
2019-02-25T11:18:31.598Z,101579.81
2019-02-25T11:20:59.072Z,101583.28
2019-02-25T11:23:25.403Z,101580.15
2019-02-25T11:25:51.525Z,101556.97
2019-02-25T11:28:25.592Z,101565.70
2019-02-25T11:30:49.138Z,101568.31
2019-02-25T11:33:14.765Z,101555.27
2019-02-25T11:35:41.532Z,101553.18
2019-02-25T11:38:08.684Z,101559.05
2019-02-25T11:40:36.555Z,101551.08
2019-02-25T11:43:02.646Z,101563.00
2019-02-25T11:45:29.010Z,101554.84
2019-02-25T11:47:54.955Z,101549.16
2019-02-25T11:50:20.902Z,101542.64
2019-02-25T11:52:46.981Z,101538.84
2019-02-25T11:55:14.422Z,101538.20
2019-02-25T11:57:40.809Z,101526.97
2019-02-25T12:00:16.693Z,101530.44
2019-02-25T12:02:42.990Z,101530.08
2019-02-25T12:05:09.820Z,101526.13
2019-02-25T12:07:38.844Z,101524.92
2019-02-25T12:10:08.114Z,101521.05
2019-02-25T12:12:34.158Z,101522.47
2019-02-25T12:15:00.513Z,101520.73
2019-02-25T12:17:26.436Z,101513.75
2019-02-25T12:19:52.283Z,101511.67
2019-02-25T12:22:20.856Z,101515.68
2019-02-25T12:24:46.778Z,101506.41
2019-02-25T12:27:12.705Z,101513.53
2019-02-25T12:29:38.679Z,101506.08
2019-02-25T12:32:04.531Z,101514.91
2019-02-25T12:34:30.444Z,101491.95
2019-02-25T12:36:56.290Z,101491.95
2019-02-25T12:39:22.246Z,101504.67
2019-02-25T12:41:48.263Z,101497.84
2019-02-25T12:44:14.372Z,101493.26
2019-02-25T12:46:40.329Z,101486.03
2019-02-25T12:49:06.203Z,101487.19
2019-02-25T12:51:32.033Z,101480.66
2019-02-25T12:53:57.884Z,101478.02
2019-02-25T12:56:23.903Z,101480.84
2019-02-25T12:58:49.742Z,101485.50
2019-02-25T13:01:15.671Z,101488.20
2019-02-25T13:03:41.643Z,101502.09
2019-02-25T13:06:07.480Z,101488.77
2019-02-25T13:08:33.337Z,101494.73
2019-02-25T13:10:59.308Z,101497.84
2019-02-25T13:13:25.346Z,101507.39
2019-02-25T13:15:51.225Z,101499.55
2019-02-25T13:18:17.077Z,101504.21
2019-02-25T13:20:43.024Z,101499.55
2019-02-25T13:23:09.004Z,101484.37
2019-02-25T13:25:34.836Z,101464.23
2019-02-25T13:28:02.099Z,101458.48
2019-02-25T13:30:28.650Z,101440.66
2019-02-25T13:32:54.514Z,101439.08
2019-02-25T13:35:20.601Z,101437.02
2019-02-25T13:37:46.541Z,101429.70
2019-02-25T13:40:14.796Z,101424.52
2019-02-25T13:42:40.953Z,101418.67
2019-02-25T13:45:20.879Z,101408.00
2019-02-25T13:47:46.843Z,101407.38
2019-02-25T13:50:17.355Z,101404.36
2019-02-25T13:52:48.532Z,101411.27
2019-02-25T13:55:12.088Z,101415.52
2019-02-25T13:57:38.205Z,101411.77
2019-02-25T14:00:27.345Z,101404.23
2019-02-25T14:02:53.365Z,101401.68
2019-02-25T14:05:19.281Z,101397.36
2019-02-25T14:07:45.329Z,101394.09
2019-02-25T14:10:12.937Z,101393.28
2019-02-25T14:12:38.889Z,101386.20
2019-02-25T14:15:07.184Z,101388.80
2019-02-25T14:17:33.380Z,101386.91
2019-02-25T14:19:59.319Z,101381.02
2019-02-25T14:22:25.184Z,101373.95
2019-02-25T14:24:51.336Z,101367.67
2019-02-25T14:27:17.331Z,101358.97
2019-02-25T14:29:44.666Z,101345.61
2019-02-25T14:32:12.036Z,101337.28
2019-02-25T14:34:37.914Z,101331.78
2019-02-25T14:37:04.809Z,101331.97
2019-02-25T14:39:33.018Z,101341.63
2019-02-25T14:41:59.261Z,101332.34
2019-02-25T14:44:29.815Z,101336.73
2019-02-25T14:46:56.582Z,101329.00
2019-02-25T14:49:22.619Z,101334.44
2019-02-25T14:51:48.687Z,101331.42
2019-02-25T14:54:14.752Z,101329.67
2019-02-25T14:56:43.007Z,101322.97
2019-02-25T14:59:13.237Z,101322.43
2019-02-25T15:01:38.359Z,101318.88
2019-02-25T15:04:06.338Z,101312.11
2019-02-25T15:06:32.971Z,101304.17
2019-02-25T15:09:01.785Z,101309.20
2019-02-25T15:11:28.022Z,101303.11
2019-02-25T15:13:54.127Z,101298.91
2019-02-25T15:16:20.037Z,101303.69
2019-02-25T15:18:45.867Z,101298.11
2019-02-25T15:21:15.232Z,101280.54
2019-02-25T15:23:39.692Z,101277.47
2019-02-25T15:26:06.771Z,101281.56
2019-02-25T15:28:33.542Z,101284.05
2019-02-25T15:31:00.106Z,101294.39
2019-02-25T15:33:27.432Z,101290.93
2019-02-25T15:35:53.663Z,101292.33
2019-02-25T15:38:19.613Z,101298.01
2019-02-25T15:40:45.548Z,101292.40
2019-02-25T15:43:15.884Z,101303.17
2019-02-25T15:45:42.694Z,101304.95
2019-02-25T15:48:14.944Z,101302.13
2019-02-25T15:50:44.042Z,101297.83
2019-02-25T15:53:10.030Z,101298.66
2019-02-25T15:55:37.295Z,101298.37
2019-02-25T15:58:03.946Z,101296.75
2019-02-25T16:00:32.143Z,101305.63
2019-02-25T16:02:58.339Z,101293.36
2019-02-25T16:05:27.401Z,101290.06
2019-02-25T16:07:55.942Z,101298.19
2019-02-25T16:10:23.364Z,101300.75
2019-02-25T16:12:51.197Z,101301.02
2019-02-25T16:15:18.896Z,101291.98
2019-02-25T16:17:46.255Z,101296.94
2019-02-25T16:20:17.556Z,101292.70
2019-02-25T16:22:43.956Z,101285.25
2019-02-25T16:25:18.479Z,101290.98
2019-02-25T16:27:45.666Z,101289.34
2019-02-25T16:30:13.573Z,101290.98
2019-02-25T16:32:40.535Z,101289.92
2019-02-25T16:35:10.429Z,101297.23
2019-02-25T16:37:36.352Z,101293.16
2019-02-25T16:40:06.512Z,101286.66
2019-02-25T16:42:33.149Z,101286.31
2019-02-25T16:45:01.420Z,101286.17
2019-02-25T16:47:32.802Z,101289.52
2019-02-25T16:50:00.919Z,101285.06
2019-02-25T16:52:27.138Z,101287.41
2019-02-25T16:54:53.278Z,101290.05
2019-02-25T16:57:21.212Z,101288.75
2019-02-25T16:59:46.986Z,101297.95
2019-02-25T17:02:14.178Z,101294.37
2019-02-25T17:04:40.375Z,101302.30
2019-02-25T17:07:06.210Z,101297.89
2019-02-25T17:09:34.232Z,101291.09
2019-02-25T17:12:02.314Z,101294.98
2019-02-25T17:14:28.401Z,101294.44
2019-02-25T17:16:56.765Z,101297.98
2019-02-25T17:19:22.548Z,101308.78
2019-02-25T17:21:48.673Z,101302.19
2019-02-25T17:24:14.612Z,101307.70
2019-02-25T17:26:40.622Z,101308.29
2019-02-25T17:29:06.573Z,101311.18
2019-02-25T17:31:34.337Z,101315.87
2019-02-25T17:34:00.186Z,101314.64
2019-02-25T17:36:26.185Z,101314.83
2019-02-25T17:38:52.343Z,101321.23
2019-02-25T17:41:18.189Z,101316.28
2019-02-25T17:43:44.178Z,101317.94
2019-02-25T17:46:11.982Z,101324.81
2019-02-25T17:48:37.874Z,101320.33
2019-02-25T17:51:04.126Z,101317.09
2019-02-25T17:53:31.059Z,101315.31
2019-02-25T17:55:59.732Z,101318.63
2019-02-25T17:58:25.934Z,101321.17
2019-02-25T18:00:53.974Z,101322.27
2019-02-25T18:03:21.698Z,101330.25
2019-02-25T18:05:48.013Z,101331.25
2019-02-25T18:08:15.338Z,101328.03
2019-02-25T18:10:43.152Z,101326.81
2019-02-25T18:13:10.873Z,101323.82
2019-02-25T18:15:37.386Z,101322.19
2019-02-25T18:18:06.897Z,101322.50
2019-02-25T18:20:31.562Z,101313.90
2019-02-25T18:22:57.718Z,101316.72
2019-02-25T18:25:23.769Z,101319.16
2019-02-25T18:27:50.504Z,101308.48
2019-02-25T18:30:21.783Z,101305.44
2019-02-25T18:32:48.097Z,101316.14
2019-02-25T18:35:16.357Z,101322.30
2019-02-25T18:37:43.490Z,101316.33
2019-02-25T18:40:12.187Z,101311.50
2019-02-25T18:42:40.843Z,101318.59
2019-02-25T18:45:11.169Z,101313.39
2019-02-25T18:47:38.298Z,101313.38
2019-02-25T18:50:07.965Z,101311.25
2019-02-25T18:52:35.804Z,101316.81
2019-02-25T18:55:04.906Z,101325.43
2019-02-25T18:57:30.965Z,101331.11
2019-02-25T18:59:59.241Z,101328.16
2019-02-25T19:02:24.944Z,101324.30
2019-02-25T19:04:50.906Z,101320.80
2019-02-25T19:07:17.041Z,101324.75
2019-02-25T19:09:46.685Z,101324.77
2019-02-25T19:12:10.815Z,101320.03
2019-02-25T19:14:36.651Z,101314.72
2019-02-25T19:17:04.871Z,101317.38
2019-02-25T19:19:31.427Z,101318.22
2019-02-25T19:21:58.884Z,101317.83
2019-02-25T19:24:25.142Z,101315.63
2019-02-25T19:26:51.056Z,101317.37
2019-02-25T19:29:19.422Z,101321.80
2019-02-25T19:31:45.368Z,101321.86
2019-02-25T19:34:15.537Z,101324.47
2019-02-25T19:36:41.197Z,101317.68
2019-02-25T19:39:11.653Z,101316.44
2019-02-25T19:41:38.041Z,101324.92
2019-02-25T19:44:04.221Z,101321.84
2019-02-25T19:46:32.064Z,101316.16
2019-02-25T19:48:58.112Z,101319.34
2019-02-25T19:51:29.698Z,101316.72
2019-02-25T19:53:55.584Z,101319.08
2019-02-25T19:56:21.634Z,101314.78
2019-02-25T19:58:47.567Z,101316.51
2019-02-25T20:01:13.453Z,101315.93
2019-02-25T20:03:40.054Z,101304.59
2019-02-25T20:06:11.143Z,101303.30
2019-02-25T20:08:35.442Z,101302.94
2019-02-25T20:11:01.343Z,101304.67
2019-02-25T20:13:27.422Z,101305.64
2019-02-25T20:15:55.578Z,101301.10
2019-02-25T20:18:21.195Z,101298.92
2019-02-25T20:20:47.354Z,101297.98
2019-02-25T20:23:13.215Z,101300.64
2019-02-25T20:25:42.408Z,101295.86
2019-02-25T20:28:07.060Z,101291.92
2019-02-25T20:30:33.198Z,101297.01
2019-02-25T20:33:00.803Z,101302.80
2019-02-25T20:35:28.990Z,101316.88
2019-02-25T20:37:55.694Z,101323.44
2019-02-25T20:40:24.165Z,101331.90
2019-02-25T20:42:53.039Z,101332.31
2019-02-25T20:45:31.036Z,101330.64
2019-02-25T20:47:57.190Z,101323.14
2019-02-25T20:50:24.566Z,101319.17
2019-02-25T20:52:52.581Z,101329.80
2019-02-25T20:55:18.531Z,101333.78
2019-02-25T20:57:44.563Z,101335.11
2019-02-25T21:00:16.027Z,101339.04
2019-02-25T21:02:43.350Z,101339.53
2019-02-25T21:05:11.568Z,101340.41
2019-02-25T21:07:38.130Z,101341.31
2019-02-25T21:10:08.822Z,101336.00
2019-02-25T21:12:34.906Z,101334.65
2019-02-25T21:15:01.140Z,101337.33
2019-02-25T21:17:28.502Z,101339.98
2019-02-25T21:19:56.115Z,101336.91
2019-02-25T21:22:23.356Z,101339.98
2019-02-25T21:24:54.022Z,101339.97
2019-02-25T21:27:18.370Z,101333.83
2019-02-25T21:29:44.405Z,101332.49
2019-02-25T21:32:12.777Z,101335.16
2019-02-25T21:34:38.375Z,101334.25
2019-02-25T21:37:04.425Z,101332.02
2019-02-25T21:39:31.985Z,101330.30
2019-02-25T21:41:58.174Z,101329.83
2019-02-25T21:44:26.212Z,101332.88
2019-02-25T21:46:54.048Z,101331.16
2019-02-25T21:49:24.958Z,101329.84
2019-02-25T21:51:48.188Z,101323.25
2019-02-25T21:54:14.099Z,101317.50
2019-02-25T21:56:39.941Z,101324.13
2019-02-25T21:59:06.602Z,101316.22
2019-02-25T22:01:34.625Z,101313.09
2019-02-25T22:04:01.535Z,101326.70
2019-02-25T22:06:29.583Z,101324.06
2019-02-25T22:08:56.808Z,101321.44
2019-02-25T22:11:23.074Z,101317.45
2019-02-25T22:13:48.891Z,101305.52
2019-02-25T22:16:14.831Z,101313.89
2019-02-25T22:18:40.750Z,101309.53
2019-02-25T22:21:09.251Z,101306.85
2019-02-25T22:23:35.441Z,101305.56
2019-02-25T22:26:02.410Z,101310.44
2019-02-25T22:28:30.464Z,101313.49
2019-02-25T22:30:56.232Z,101316.11
2019-02-25T22:33:27.559Z,101319.13
2019-02-25T22:35:51.810Z,101324.38
2019-02-25T22:38:18.047Z,101327.44
2019-02-25T22:40:43.891Z,101331.83
2019-02-25T22:43:12.081Z,101324.79
2019-02-25T22:45:39.597Z,101327.41
2019-02-25T22:48:05.772Z,101321.63
2019-02-25T22:50:33.875Z,101328.29
2019-02-25T22:53:01.634Z,101327.39
2019-02-25T22:55:27.851Z,101337.92
2019-02-25T22:57:54.201Z,101345.33
2019-02-25T23:00:33.738Z,101350.62
2019-02-25T23:02:59.981Z,101346.69
2019-02-25T23:05:26.518Z,101341.02
2019-02-25T23:07:55.006Z,101341.03
2019-02-25T23:10:21.944Z,101340.59
2019-02-25T23:12:48.794Z,101337.95
2019-02-25T23:15:14.906Z,101341.00
2019-02-25T23:17:42.854Z,101337.09
2019-02-25T23:20:09.836Z,101334.50
2019-02-25T23:22:36.646Z,101332.70
2019-02-25T23:25:06.680Z,101323.40
2019-02-25T23:27:34.310Z,101322.52
2019-02-25T23:30:00.599Z,101317.68
2019-02-25T23:32:26.416Z,101322.55
2019-02-25T23:34:53.341Z,101320.80
2019-02-25T23:37:21.757Z,101325.66
2019-02-25T23:39:48.070Z,101326.17
2019-02-25T23:42:15.776Z,101321.82
2019-02-25T23:44:41.811Z,101323.12
2019-02-25T23:47:08.963Z,101318.77
2019-02-25T23:49:36.442Z,101317.47
2019-02-25T23:52:03.216Z,101312.63
2019-02-25T23:54:29.057Z,101317.45
2019-02-25T23:57:00.170Z,101315.27
2019-02-25T23:59:26.914Z,101310.91
